NCAR-RAP Real-Time Weather Data

Output produced by METARs form (19 June 2019  11:20 UTC)
found at http://weather.rap.ucar.edu/surface/
 
KIAD 191052Z 00000KT 10SM BKN008 BKN110 BKN230 22/21 A2984 RMK AO2 SLP100 T02170206
KIAD 190952Z 17003KT 10SM BCFG BKN009 BKN120 OVC250 21/19 A2983 RMK AO2 SLP099 T02060194 $
KIAD 190852Z 00000KT 10SM BKN011 BKN140 BKN250 21/20 A2984 RMK AO2 SLP101 T02110200 56016 $
KIAD 190752Z 23004KT 10SM OVC010 22/21 A2985 RMK AO2 CIG 007V013 SLP105 T02170206 $
KIAD 190652Z 18006KT 10SM BKN007 OVC140 22/21 A2987 RMK AO2 SLP111 T02170206 $
KIAD 190552Z 18006KT 10SM BKN005 BKN075 OVC130 22/21 A2989 RMK AO2 SLP117 BINOVC 60000 T02170206 10222 20217 56006 $
KIAD 190527Z 16006KT 10SM BKN005 BKN075 OVC120 22/21 A2989 RMK AO2 T02170206 $
KIAD 190452Z 16004KT 10SM SCT005 BKN070 OVC100 22/21 A2989 RMK AO2 SLP120 T02170206 403060206 $
KIAD 190352Z 14005KT 10SM FEW030 BKN090 OVC130 22/21 A2989 RMK AO2 RAE12 SLP120 P0000 T02170206 $
KIAD 190252Z 16003KT 10SM -RA FEW030 BKN090 BKN120 OVC150 22/21 A2990 RMK AO2 RAB52 SLP123 LTG DSNT NE P0000 60000 T02220206 56002 $
KIAD 190152Z 00000KT 10SM FEW026 BKN055TCU BKN110 BKN200 22/21 A2991 RMK AO2 RAB06E29 SLP124 TCU N MOV E P0000 T02220206 $
KIAD 190052Z 19006KT 10SM SCT048 SCT060TCU BKN110 BKN250 22/21 A2991 RMK AO2 SLP124 TCU SW AND W MOV E T02220206 $
KIAD 182352Z 17005KT 10SM FEW055 BKN120 BKN200 22/21 A2991 RMK AO2 TSE08 SLP125 60000 T02220206 10306 20222 53009 $
KIAD 182309Z 17005KT 10SM FEW040 BKN110 BKN200 23/21 A2990 RMK AO2 TSE08 OCNL LTG DSNT SE CB DSNT SE MOV E T02280206
KIAD 182252Z 15007KT 10SM TS SCT046CB BKN090 BKN200 23/21 A2990 RMK AO2 RAB26E48 TSB09 SLP122 OCNL LTGICCC TS SE MOV E P0000 T02280211
KIAD 182210Z 32006KT 10SM TS SCT050CB SCT120 BKN200 29/18 A2988 RMK AO2 TSB09 OCNL LTGICCC TS S MOV E T02890183
KIAD 182152Z COR 34007KT 10SM SCTO5O SCT120 BKN200 29/18 A2987 RMK AO2 TCU S MOV E SLP111 T02890183
KIAD 182052Z 28009KT 10SM FEW040 BKN140 BKN200 29/18 A2988 RMK AO2 SLP116 T02940178 56015
KIAD 181952Z 29008G17KT 10SM FEW040 SCT110 BKN200 30/19 A2989 RMK AO2 SLP119 T03000189
KIAD 181852Z 27009KT 10SM FEW035 BKN110 BKN200 29/19 A2991 RMK AO2 SLP125 T02890189
KIAD 181752Z 28009KT 10SM SCT011 BKN035TCU BKN110 BKN220 29/19 A2993 RMK AO2 SLP132 TCU OHD T02940194 10294 20217 58004
KIAD 181652Z COR 28012G18KT 10SM SCT011 BKN035 BKN110 28/18 A2994 RMK AO2 SLP136 T02830183
KIAD 181552Z 23004KT 10SM SCT010 SCT040 BKN100 BKN200 27/22 A2995 RMK AO2 SLP138 T02670217
KIAD 181452Z 00000KT 10SM SCT012 BKN100 BKN200 26/21 A2994 RMK AO2 SLP136 T02610211 50002
KIAD 181352Z 00000KT 10SM FEW005 BKN110 BKN220 26/21 A2994 RMK AO2 SLP136 T02560211 $